Terminal Aerodrome Forecast
Issued by NWS

Home | Current Version | Previous Version | Text Only | Print | Product List | Glossary On
Versions: 1 2 3 4 5 6 7 8 9 10 11 12 13 14 15
000
FTUS43 KMQT 191723
TAFCMX
TAF
KCMX 191723Z 1918/2018 29012G18KT 6SM -SHSN OVC025
     FM192200 28012G18KT P6SM BKN040
     FM200600 27006KT P6SM BKN050
     FM201300 24005KT P6SM BKN090=

USA.gov is the U.S. government's official web portal to all federal, state and local government web resources and services.